AAL5519 KBHM-KMEM
Flight info
| Callsign | AAL5519 |
|---|---|
| Flight time | 0h 43m |
| Altitude | 28000 |
| Route | DCT KELCC DCT WASER VANZE3 |
| Aircraft | A20N/M-SDE2E3FGHIRWXY/LB1 |
Departure
| Time | 2026-04-22 23:45 |
|---|---|
| Airport | Birmingham-Shuttlesworth International Airport (KBHM) |
Arrival
| Time | 2026-04-23 00:29 |
|---|---|
| Airport | Memphis International Airport (KMEM) |
| Time | Latitude | Longitude | Altitude | Speed | Heading |
|---|---|---|---|---|---|
| 2026-04-22 23:03 | 33.56281 | -86.75221 | 639 ft | 0 kts | 144° |
| 2026-04-22 23:30 | 33.56290 | -86.75228 | 647 ft | 2 kts | 144° |
| 2026-04-22 23:30 | 33.56301 | -86.75238 | 643 ft | 2 kts | 144° |
| 2026-04-22 23:30 | 33.56312 | -86.75247 | 645 ft | 2 kts | 145° |
| 2026-04-22 23:30 | 33.56324 | -86.75257 | 641 ft | 2 kts | 155° |
| 2026-04-22 23:31 | 33.56338 | -86.75263 | 641 ft | 2 kts | 174° |
| 2026-04-22 23:31 | 33.56353 | -86.75263 | 644 ft | 2 kts | 192° |
| 2026-04-22 23:31 | 33.56363 | -86.75260 | 640 ft | 0 kts | 205° |
| 2026-04-22 23:31 | 33.56368 | -86.75257 | 641 ft | 1 kts | 219° |
| 2026-04-22 23:32 | 33.56377 | -86.75243 | 640 ft | 2 kts | 234° |
| 2026-04-22 23:32 | 33.56378 | -86.75241 | 640 ft | 0 kts | 232° |
| 2026-04-22 23:38 | 33.56377 | -86.75244 | 640 ft | 3 kts | 235° |
| 2026-04-22 23:39 | 33.56374 | -86.75251 | 641 ft | 0 kts | 239° |
| 2026-04-22 23:39 | 33.56369 | -86.75256 | 640 ft | 5 kts | 228° |
| 2026-04-22 23:39 | 33.56340 | -86.75314 | 641 ft | 0 kts | 263° |
| 2026-04-22 23:40 | 33.56354 | -86.75350 | 643 ft | 10 kts | 317° |
| 2026-04-22 23:40 | 33.56423 | -86.75316 | 642 ft | 16 kts | 55° |
| 2026-04-22 23:40 | 33.56500 | -86.75183 | 642 ft | 22 kts | 55° |
| 2026-04-22 23:40 | 33.56585 | -86.75031 | 644 ft | 20 kts | 62° |
| 2026-04-22 23:41 | 33.56610 | -86.74864 | 646 ft | 20 kts | 72° |
| 2026-04-22 23:41 | 33.56681 | -86.74724 | 651 ft | 20 kts | 56° |
| 2026-04-22 23:41 | 33.56763 | -86.74579 | 648 ft | 22 kts | 52° |
| 2026-04-22 23:41 | 33.56850 | -86.74429 | 648 ft | 23 kts | 57° |
| 2026-04-22 23:42 | 33.56948 | -86.74262 | 647 ft | 25 kts | 54° |
| 2026-04-22 23:42 | 33.57053 | -86.74082 | 645 ft | 27 kts | 57° |
| 2026-04-22 23:42 | 33.57159 | -86.73896 | 649 ft | 21 kts | 56° |
| 2026-04-22 23:42 | 33.57235 | -86.73838 | 649 ft | 10 kts | 346° |
| 2026-04-22 23:43 | 33.57256 | -86.73851 | 651 ft | 1 kts | 329° |
| 2026-04-22 23:43 | 33.57257 | -86.73852 | 651 ft | 0 kts | 328° |
| 2026-04-22 23:43 | 33.57263 | -86.73856 | 651 ft | 5 kts | 328° |
| 2026-04-22 23:44 | 33.57319 | -86.73936 | 651 ft | 15 kts | 272° |
| 2026-04-22 23:44 | 33.57266 | -86.74058 | 653 ft | 18 kts | 234° |
| 2026-04-22 23:44 | 33.57205 | -86.74161 | 648 ft | 0 kts | 235° |
| 2026-04-22 23:44 | 33.57198 | -86.74172 | 648 ft | 13 kts | 235° |
| 2026-04-22 23:45 | 33.57004 | -86.74513 | 649 ft | 84 kts | 234° |
| 2026-04-22 23:45 | 33.56555 | -86.75292 | 644 ft | 139 kts | 235° |
| 2026-04-22 23:45 | 33.55933 | -86.76370 | 825 ft | 165 kts | 235° |
| 2026-04-22 23:45 | 33.55278 | -86.77517 | 1277 ft | 171 kts | 236° |
| 2026-04-22 23:46 | 33.54619 | -86.78669 | 2022 ft | 162 kts | 234° |
| 2026-04-22 23:46 | 33.53974 | -86.79786 | 2586 ft | 168 kts | 234° |
| 2026-04-22 23:46 | 33.53272 | -86.81002 | 2910 ft | 185 kts | 234° |
| 2026-04-22 23:46 | 33.52504 | -86.82337 | 3215 ft | 204 kts | 234° |
| 2026-04-22 23:47 | 33.51669 | -86.83797 | 3474 ft | 226 kts | 234° |
| 2026-04-22 23:47 | 33.50726 | -86.85447 | 3809 ft | 252 kts | 234° |
| 2026-04-22 23:47 | 33.49945 | -86.87385 | 3970 ft | 265 kts | 257° |
| 2026-04-22 23:47 | 33.49976 | -86.89594 | 4001 ft | 268 kts | 283° |
| 2026-04-22 23:48 | 33.50510 | -86.91742 | 4000 ft | 269 kts | 286° |
| 2026-04-22 23:48 | 33.51059 | -86.93863 | 3991 ft | 269 kts | 286° |
| 2026-04-22 23:48 | 33.51614 | -86.95999 | 3987 ft | 269 kts | 286° |
| 2026-04-22 23:48 | 33.52186 | -86.98150 | 4202 ft | 272 kts | 290° |
| 2026-04-22 23:49 | 33.53275 | -87.00002 | 4997 ft | 275 kts | 320° |
| 2026-04-22 23:49 | 33.54973 | -87.01038 | 6113 ft | 277 kts | 343° |
| 2026-04-22 23:49 | 33.56861 | -87.01592 | 7107 ft | 281 kts | 348° |
| 2026-04-22 23:49 | 33.58774 | -87.02066 | 8066 ft | 286 kts | 348° |
| 2026-04-22 23:50 | 33.60732 | -87.02571 | 9056 ft | 290 kts | 347° |
| 2026-04-22 23:50 | 33.62714 | -87.03123 | 10058 ft | 294 kts | 346° |
| 2026-04-22 23:50 | 33.64758 | -87.03724 | 10652 ft | 313 kts | 346° |
| 2026-04-22 23:50 | 33.66953 | -87.04387 | 11023 ft | 336 kts | 346° |
| 2026-04-22 23:51 | 33.69240 | -87.05085 | 11567 ft | 348 kts | 346° |
| 2026-04-22 23:51 | 33.71594 | -87.05806 | 11858 ft | 348 kts | 346° |
| 2026-04-22 23:51 | 33.73952 | -87.06527 | 11957 ft | 349 kts | 346° |
| 2026-04-22 23:51 | 33.76315 | -87.07250 | 11967 ft | 349 kts | 346° |
| 2026-04-22 23:52 | 33.78638 | -87.07961 | 11973 ft | 349 kts | 346° |
| 2026-04-22 23:52 | 33.80996 | -87.08682 | 11971 ft | 349 kts | 346° |
| 2026-04-22 23:52 | 33.83353 | -87.09403 | 11976 ft | 349 kts | 346° |
| 2026-04-22 23:52 | 33.85715 | -87.10126 | 11978 ft | 349 kts | 346° |
| 2026-04-22 23:53 | 33.88040 | -87.10838 | 11979 ft | 349 kts | 346° |
| 2026-04-22 23:53 | 33.90399 | -87.11561 | 11981 ft | 349 kts | 346° |
| 2026-04-22 23:53 | 33.92742 | -87.12385 | 12226 ft | 353 kts | 336° |
| 2026-04-22 23:53 | 33.94772 | -87.14041 | 13153 ft | 353 kts | 316° |
| 2026-04-22 23:54 | 33.96194 | -87.16409 | 14076 ft | 357 kts | 296° |
| 2026-04-22 23:54 | 33.97090 | -87.19218 | 14843 ft | 361 kts | 290° |
| 2026-04-22 23:54 | 33.97886 | -87.22020 | 15646 ft | 363 kts | 289° |
| 2026-04-22 23:54 | 33.98719 | -87.25002 | 16460 ft | 366 kts | 289° |
| 2026-04-22 23:55 | 33.99540 | -87.27929 | 17232 ft | 370 kts | 289° |
| 2026-04-22 23:55 | 34.00365 | -87.30839 | 17988 ft | 373 kts | 290° |
| 2026-04-22 23:55 | 34.01212 | -87.33813 | 18723 ft | 376 kts | 290° |
| 2026-04-22 23:55 | 34.02069 | -87.36813 | 19336 ft | 380 kts | 290° |
| 2026-04-22 23:56 | 34.02935 | -87.39847 | 19963 ft | 384 kts | 290° |
| 2026-04-22 23:56 | 34.03811 | -87.42911 | 20573 ft | 388 kts | 290° |
| 2026-04-22 23:56 | 34.04683 | -87.45968 | 21183 ft | 391 kts | 290° |
| 2026-04-22 23:56 | 34.05574 | -87.49097 | 21797 ft | 395 kts | 290° |
| 2026-04-22 23:57 | 34.06473 | -87.52253 | 22389 ft | 400 kts | 290° |
| 2026-04-22 23:57 | 34.07382 | -87.55453 | 22985 ft | 404 kts | 290° |
| 2026-04-22 23:57 | 34.08298 | -87.58681 | 23569 ft | 408 kts | 290° |
| 2026-04-22 23:57 | 34.09209 | -87.61894 | 24072 ft | 411 kts | 290° |
| 2026-04-22 23:58 | 34.10136 | -87.65167 | 24612 ft | 413 kts | 290° |
| 2026-04-22 23:58 | 34.11069 | -87.68467 | 25106 ft | 416 kts | 290° |
| 2026-04-22 23:58 | 34.12005 | -87.71781 | 25620 ft | 418 kts | 290° |
| 2026-04-22 23:58 | 34.12947 | -87.75118 | 26103 ft | 421 kts | 290° |
| 2026-04-22 23:59 | 34.13895 | -87.78485 | 26579 ft | 424 kts | 290° |
| 2026-04-22 23:59 | 34.14847 | -87.81866 | 27025 ft | 426 kts | 290° |
| 2026-04-22 23:59 | 34.15792 | -87.85227 | 27481 ft | 429 kts | 290° |
| 2026-04-22 23:59 | 34.16754 | -87.88655 | 27912 ft | 432 kts | 290° |
| 2026-04-23 00:00 | 34.18690 | -87.95563 | 28098 ft | 434 kts | 290° |
| 2026-04-23 00:00 | 34.19331 | -87.97854 | 28098 ft | 433 kts | 290° |
| 2026-04-23 00:01 | 34.21953 | -88.05689 | 27776 ft | 430 kts | 300° |
| 2026-04-23 00:01 | 34.23372 | -88.08876 | 27526 ft | 428 kts | 300° |
| 2026-04-23 00:01 | 34.24772 | -88.12044 | 27268 ft | 427 kts | 299° |
| 2026-04-23 00:01 | 34.26165 | -88.15206 | 27016 ft | 425 kts | 299° |
| 2026-04-23 00:02 | 34.27554 | -88.18367 | 26764 ft | 423 kts | 299° |
| 2026-04-23 00:02 | 34.28933 | -88.21508 | 26487 ft | 421 kts | 299° |
| 2026-04-23 00:02 | 34.30291 | -88.24605 | 26246 ft | 421 kts | 299° |
| 2026-04-23 00:02 | 34.31666 | -88.27743 | 26004 ft | 421 kts | 299° |
| 2026-04-23 00:03 | 34.33032 | -88.30864 | 25763 ft | 419 kts | 299° |
| 2026-04-23 00:03 | 34.34393 | -88.33975 | 25525 ft | 417 kts | 299° |
| 2026-04-23 00:03 | 34.35749 | -88.37079 | 25276 ft | 416 kts | 299° |
| 2026-04-23 00:03 | 34.37087 | -88.40142 | 25040 ft | 415 kts | 299° |
| 2026-04-23 00:04 | 34.38436 | -88.43237 | 24830 ft | 414 kts | 298° |
| 2026-04-23 00:04 | 34.39781 | -88.46323 | 24599 ft | 412 kts | 298° |
| 2026-04-23 00:04 | 34.41118 | -88.49393 | 24369 ft | 411 kts | 298° |
| 2026-04-23 00:04 | 34.42435 | -88.52422 | 24171 ft | 409 kts | 298° |
| 2026-04-23 00:05 | 34.43762 | -88.55475 | 24115 ft | 409 kts | 298° |
| 2026-04-23 00:05 | 34.45112 | -88.58524 | 24111 ft | 409 kts | 300° |
| 2026-04-23 00:05 | 34.46489 | -88.61542 | 24111 ft | 409 kts | 300° |
| 2026-04-23 00:05 | 34.47860 | -88.64528 | 24110 ft | 409 kts | 300° |
| 2026-04-23 00:06 | 34.49243 | -88.67552 | 24109 ft | 409 kts | 300° |
| 2026-04-23 00:06 | 34.50619 | -88.70575 | 24107 ft | 408 kts | 300° |
| 2026-04-23 00:06 | 34.51992 | -88.73602 | 24108 ft | 408 kts | 300° |
| 2026-04-23 00:06 | 34.53338 | -88.76577 | 23937 ft | 405 kts | 299° |
| 2026-04-23 00:07 | 34.54693 | -88.79574 | 23495 ft | 403 kts | 299° |
| 2026-04-23 00:07 | 34.56038 | -88.82555 | 23121 ft | 398 kts | 299° |
| 2026-04-23 00:07 | 34.57366 | -88.85498 | 23034 ft | 399 kts | 299° |
| 2026-04-23 00:07 | 34.58709 | -88.88478 | 23041 ft | 402 kts | 299° |
| 2026-04-23 00:08 | 34.60035 | -88.91422 | 23030 ft | 402 kts | 299° |
| 2026-04-23 00:08 | 34.61378 | -88.94407 | 23029 ft | 401 kts | 299° |
| 2026-04-23 00:08 | 34.62266 | -88.96382 | 23020 ft | 402 kts | 299° |
| 2026-04-23 00:08 | 34.63609 | -88.99371 | 23024 ft | 402 kts | 299° |
| 2026-04-23 00:09 | 34.64928 | -89.02309 | 23027 ft | 387 kts | 299° |
| 2026-04-23 00:09 | 34.66189 | -89.05122 | 23025 ft | 369 kts | 299° |
| 2026-04-23 00:09 | 34.67349 | -89.07828 | 23032 ft | 352 kts | 295° |
| 2026-04-23 00:09 | 34.68193 | -89.10515 | 23017 ft | 337 kts | 288° |
| 2026-04-23 00:10 | 34.68811 | -89.13211 | 22936 ft | 324 kts | 287° |
| 2026-04-23 00:10 | 34.69408 | -89.15811 | 22637 ft | 318 kts | 287° |
| 2026-04-23 00:10 | 34.70018 | -89.18432 | 21989 ft | 324 kts | 287° |
| 2026-04-23 00:10 | 34.70616 | -89.21002 | 21767 ft | 315 kts | 287° |
| 2026-04-23 00:11 | 34.71211 | -89.23566 | 21292 ft | 316 kts | 287° |
| 2026-04-23 00:11 | 34.71813 | -89.26169 | 20757 ft | 328 kts | 287° |
| 2026-04-23 00:11 | 34.72438 | -89.28909 | 20223 ft | 339 kts | 286° |
| 2026-04-23 00:11 | 34.73056 | -89.31685 | 19691 ft | 341 kts | 286° |
| 2026-04-23 00:12 | 34.73672 | -89.34475 | 19175 ft | 341 kts | 286° |
| 2026-04-23 00:12 | 34.74281 | -89.37234 | 18678 ft | 342 kts | 286° |
| 2026-04-23 00:12 | 34.74901 | -89.40035 | 18140 ft | 342 kts | 286° |
| 2026-04-23 00:12 | 34.75520 | -89.42831 | 17561 ft | 342 kts | 286° |
| 2026-04-23 00:13 | 34.76139 | -89.45626 | 17051 ft | 341 kts | 286° |
| 2026-04-23 00:13 | 34.76782 | -89.48350 | 16589 ft | 337 kts | 290° |
| 2026-04-23 00:13 | 34.77718 | -89.50978 | 15948 ft | 340 kts | 298° |
| 2026-04-23 00:13 | 34.78940 | -89.53448 | 15320 ft | 342 kts | 302° |
| 2026-04-23 00:14 | 34.80206 | -89.55921 | 14691 ft | 345 kts | 302° |
| 2026-04-23 00:14 | 34.81472 | -89.58419 | 14095 ft | 347 kts | 302° |
| 2026-04-23 00:14 | 34.82746 | -89.60940 | 13432 ft | 350 kts | 302° |
| 2026-04-23 00:14 | 34.84024 | -89.63471 | 12764 ft | 351 kts | 301° |
| 2026-04-23 00:15 | 34.85290 | -89.65981 | 12105 ft | 352 kts | 301° |
| 2026-04-23 00:15 | 34.86577 | -89.68534 | 11477 ft | 352 kts | 301° |
| 2026-04-23 00:15 | 34.87851 | -89.71061 | 11089 ft | 345 kts | 301° |
| 2026-04-23 00:15 | 34.89074 | -89.73490 | 10754 ft | 337 kts | 301° |
| 2026-04-23 00:16 | 34.90301 | -89.75926 | 10262 ft | 335 kts | 300° |
| 2026-04-23 00:16 | 34.91498 | -89.78307 | 10067 ft | 323 kts | 300° |
| 2026-04-23 00:16 | 34.92644 | -89.80586 | 10010 ft | 307 kts | 300° |
| 2026-04-23 00:16 | 34.93731 | -89.82751 | 10000 ft | 290 kts | 300° |
| 2026-04-23 00:17 | 34.94901 | -89.84646 | 9876 ft | 280 kts | 318° |
| 2026-04-23 00:17 | 34.96572 | -89.85741 | 9756 ft | 271 kts | 345° |
| 2026-04-23 00:17 | 34.98414 | -89.85919 | 9645 ft | 260 kts | 358° |
| 2026-04-23 00:17 | 35.00192 | -89.85950 | 9488 ft | 251 kts | 358° |
| 2026-04-23 00:18 | 35.01943 | -89.85979 | 9145 ft | 251 kts | 358° |
| 2026-04-23 00:18 | 35.03696 | -89.86009 | 8804 ft | 251 kts | 358° |
| 2026-04-23 00:18 | 35.05427 | -89.86039 | 8460 ft | 252 kts | 358° |
| 2026-04-23 00:18 | 35.07185 | -89.86073 | 8130 ft | 252 kts | 358° |
| 2026-04-23 00:19 | 35.08947 | -89.86109 | 7794 ft | 253 kts | 358° |
| 2026-04-23 00:19 | 35.10716 | -89.86147 | 7470 ft | 254 kts | 358° |
| 2026-04-23 00:19 | 35.12469 | -89.86186 | 7135 ft | 255 kts | 358° |
| 2026-04-23 00:19 | 35.14248 | -89.86224 | 6858 ft | 255 kts | 358° |
| 2026-04-23 00:20 | 35.16029 | -89.86262 | 6540 ft | 256 kts | 358° |
| 2026-04-23 00:20 | 35.17812 | -89.86300 | 6245 ft | 255 kts | 358° |
| 2026-04-23 00:20 | 35.19578 | -89.86338 | 6004 ft | 252 kts | 358° |
| 2026-04-23 00:20 | 35.21311 | -89.86376 | 5718 ft | 252 kts | 358° |
| 2026-04-23 00:21 | 35.23056 | -89.86415 | 5454 ft | 250 kts | 358° |
| 2026-04-23 00:21 | 35.24791 | -89.86452 | 5203 ft | 248 kts | 358° |
| 2026-04-23 00:21 | 35.26511 | -89.86489 | 4960 ft | 246 kts | 358° |
| 2026-04-23 00:21 | 35.28211 | -89.86664 | 4676 ft | 243 kts | 340° |
| 2026-04-23 00:22 | 35.29629 | -89.87706 | 4365 ft | 236 kts | 307° |
| 2026-04-23 00:22 | 35.30352 | -89.89424 | 4103 ft | 223 kts | 275° |
| 2026-04-23 00:22 | 35.30470 | -89.91280 | 3793 ft | 222 kts | 268° |
| 2026-04-23 00:22 | 35.30514 | -89.93180 | 3521 ft | 220 kts | 261° |
| 2026-04-23 00:23 | 35.29952 | -89.94827 | 3243 ft | 210 kts | 222° |
| 2026-04-23 00:23 | 35.28693 | -89.95664 | 2987 ft | 206 kts | 202° |
| 2026-04-23 00:23 | 35.27453 | -89.96603 | 2582 ft | 213 kts | 211° |
| 2026-04-23 00:23 | 35.26139 | -89.97407 | 2332 ft | 209 kts | 199° |
| 2026-04-23 00:24 | 35.24774 | -89.97757 | 2244 ft | 197 kts | 184° |
| 2026-04-23 00:24 | 35.23433 | -89.97755 | 2138 ft | 188 kts | 179° |
| 2026-04-23 00:24 | 35.22197 | -89.97697 | 2207 ft | 165 kts | 178° |
| 2026-04-23 00:24 | 35.21114 | -89.97628 | 2200 ft | 147 kts | 178° |
| 2026-04-23 00:25 | 35.20128 | -89.97544 | 2097 ft | 136 kts | 177° |
| 2026-04-23 00:25 | 35.19221 | -89.97470 | 2025 ft | 128 kts | 178° |
| 2026-04-23 00:25 | 35.18253 | -89.97419 | 2066 ft | 136 kts | 179° |
| 2026-04-23 00:25 | 35.17300 | -89.97394 | 2063 ft | 141 kts | 180° |
| 2026-04-23 00:26 | 35.16312 | -89.97389 | 2027 ft | 143 kts | 181° |
| 2026-04-23 00:26 | 35.15313 | -89.97396 | 1987 ft | 144 kts | 181° |
| 2026-04-23 00:26 | 35.14272 | -89.97406 | 1838 ft | 153 kts | 181° |
| 2026-04-23 00:26 | 35.13209 | -89.97412 | 1713 ft | 155 kts | 181° |
| 2026-04-23 00:27 | 35.12114 | -89.97419 | 1605 ft | 159 kts | 181° |
| 2026-04-23 00:27 | 35.11034 | -89.97417 | 1445 ft | 150 kts | 180° |
| 2026-04-23 00:27 | 35.10016 | -89.97394 | 1284 ft | 144 kts | 180° |
| 2026-04-23 00:27 | 35.09028 | -89.97367 | 1083 ft | 139 kts | 180° |
| 2026-04-23 00:28 | 35.08080 | -89.97364 | 892 ft | 132 kts | 181° |
| 2026-04-23 00:28 | 35.07191 | -89.97353 | 634 ft | 127 kts | 179° |
| 2026-04-23 00:28 | 35.06340 | -89.97335 | 485 ft | 119 kts | 180° |
| 2026-04-23 00:28 | 35.05527 | -89.97319 | 432 ft | 115 kts | 179° |
| 2026-04-23 00:29 | 35.04743 | -89.97297 | 324 ft | 112 kts | 179° |
| 2026-04-23 00:29 | 35.04041 | -89.97281 | 308 ft | 80 kts | 179° |
| 2026-04-23 00:29 | 35.03687 | -89.97273 | 315 ft | 22 kts | 178° |
| 2026-04-23 00:29 | 35.03576 | -89.97269 | 317 ft | 19 kts | 178° |
| 2026-04-23 00:30 | 35.03407 | -89.97273 | 321 ft | 29 kts | 186° |
| 2026-04-23 00:30 | 35.03208 | -89.97365 | 322 ft | 29 kts | 219° |
| 2026-04-23 00:30 | 35.03188 | -89.97388 | 324 ft | 1 kts | 227° |
| 2026-04-23 00:30 | 35.03173 | -89.97415 | 327 ft | 8 kts | 239° |
| 2026-04-23 00:31 | 35.03159 | -89.97490 | 332 ft | 11 kts | 272° |
| 2026-04-23 00:31 | 35.03161 | -89.97629 | 330 ft | 23 kts | 269° |
| 2026-04-23 00:31 | 35.03160 | -89.97769 | 330 ft | 12 kts | 275° |
| 2026-04-23 00:31 | 35.03242 | -89.97822 | 325 ft | 19 kts | 359° |
| 2026-04-23 00:32 | 35.03396 | -89.97823 | 322 ft | 25 kts | 359° |
| 2026-04-23 00:32 | 35.03587 | -89.97830 | 319 ft | 29 kts | 0° |
| 2026-04-23 00:32 | 35.03801 | -89.97833 | 317 ft | 32 kts | 359° |
| 2026-04-23 00:32 | 35.04032 | -89.97839 | 315 ft | 32 kts | 359° |
| 2026-04-23 00:33 | 35.04131 | -89.97837 | 313 ft | 6 kts | 1° |
| 2026-04-23 00:33 | 35.04192 | -89.97865 | 312 ft | 11 kts | 290° |
| 2026-04-23 00:33 | 35.04205 | -89.97972 | 311 ft | 15 kts | 298° |
| 2026-04-23 00:33 | 35.04245 | -89.98064 | 309 ft | 0 kts | 268° |
| 2026-04-23 00:34 | 35.04247 | -89.98113 | 309 ft | 2 kts | 270° |